sensor_id;sensor_type;location;lat;lon;timestamp;P1;durP1;ratioP1;P2;durP2;ratioP2
40807;SDS011;26523;52.504;13.498;2022-10-16T00:01:17;4.00;;;2.50;;
40807;SDS011;26523;52.504;13.498;2022-10-16T00:03:45;4.53;;;2.40;;
40807;SDS011;26523;52.504;13.498;2022-10-16T00:06:12;7.53;;;2.95;;
40807;SDS011;26523;52.504;13.498;2022-10-16T00:08:39;5.60;;;2.78;;
40807;SDS011;26523;52.504;13.498;2022-10-16T00:11:06;5.13;;;2.65;;
40807;SDS011;26523;52.504;13.498;2022-10-16T00:13:34;6.72;;;2.60;;
40807;SDS011;26523;52.504;13.498;2022-10-16T00:16:01;7.72;;;2.53;;
40807;SDS011;26523;52.504;13.498;2022-10-16T00:18:27;6.05;;;3.05;;
40807;SDS011;26523;52.504;13.498;2022-10-16T00:20:53;5.35;;;2.45;;
40807;SDS011;26523;52.504;13.498;2022-10-16T00:23:19;5.90;;;2.78;;
40807;SDS011;26523;52.504;13.498;2022-10-16T00:25:54;5.43;;;2.85;;
40807;SDS011;26523;52.504;13.498;2022-10-16T00:28:23;4.43;;;2.38;;
40807;SDS011;26523;52.504;13.498;2022-10-16T00:30:49;6.10;;;2.15;;
40807;SDS011;26523;52.504;13.498;2022-10-16T00:33:15;4.65;;;2.22;;
40807;SDS011;26523;52.504;13.498;2022-10-16T00:35:40;5.03;;;2.60;;
40807;SDS011;26523;52.504;13.498;2022-10-16T00:38:06;5.82;;;2.78;;
40807;SDS011;26523;52.504;13.498;2022-10-16T00:40:31;3.58;;;2.13;;
40807;SDS011;26523;52.504;13.498;2022-10-16T00:42:57;6.68;;;2.70;;
40807;SDS011;26523;52.504;13.498;2022-10-16T00:45:23;4.00;;;2.10;;
40807;SDS011;26523;52.504;13.498;2022-10-16T00:47:49;5.63;;;2.80;;
40807;SDS011;26523;52.504;13.498;2022-10-16T00:50:22;3.28;;;1.90;;
40807;SDS011;26523;52.504;13.498;2022-10-16T00:52:53;5.38;;;2.53;;
40807;SDS011;26523;52.504;13.498;2022-10-16T00:55:19;5.45;;;3.05;;
40807;SDS011;26523;52.504;13.498;2022-10-16T00:57:47;6.13;;;3.08;;
40807;SDS011;26523;52.504;13.498;2022-10-16T01:00:16;6.18;;;1.83;;
40807;SDS011;26523;52.504;13.498;2022-10-16T01:02:53;4.15;;;2.28;;
40807;SDS011;26523;52.504;13.498;2022-10-16T01:05:19;2.42;;;1.35;;
40807;SDS011;26523;52.504;13.498;2022-10-16T01:13:40;3.50;;;1.40;;
40807;SDS011;26523;52.504;13.498;2022-10-16T01:18:44;4.32;;;1.95;;
40807;SDS011;26523;52.504;13.498;2022-10-16T01:21:22;3.75;;;1.50;;
40807;SDS011;26523;52.504;13.498;2022-10-16T01:29:18;3.78;;;1.85;;
40807;SDS011;26523;52.504;13.498;2022-10-16T01:31:56;2.13;;;1.33;;
40807;SDS011;26523;52.504;13.498;2022-10-16T01:34:31;3.85;;;1.52;;
40807;SDS011;26523;52.504;13.498;2022-10-16T01:37:05;4.43;;;1.70;;
40807;SDS011;26523;52.504;13.498;2022-10-16T01:39:37;2.83;;;1.50;;
40807;SDS011;26523;52.504;13.498;2022-10-16T01:42:09;3.05;;;1.40;;
40807;SDS011;26523;52.504;13.498;2022-10-16T01:47:07;2.47;;;1.40;;
40807;SDS011;26523;52.504;13.498;2022-10-16T01:49:36;3.75;;;1.40;;
40807;SDS011;26523;52.504;13.498;2022-10-16T01:52:05;3.60;;;2.00;;
40807;SDS011;26523;52.504;13.498;2022-10-16T01:54:34;3.25;;;1.50;;
40807;SDS011;26523;52.504;13.498;2022-10-16T01:57:02;3.72;;;1.50;;
40807;SDS011;26523;52.504;13.498;2022-10-16T01:59:31;3.55;;;1.50;;
40807;SDS011;26523;52.504;13.498;2022-10-16T02:02:00;2.95;;;1.48;;
40807;SDS011;26523;52.504;13.498;2022-10-16T02:04:31;3.55;;;2.00;;
40807;SDS011;26523;52.504;13.498;2022-10-16T02:07:01;4.05;;;2.03;;
40807;SDS011;26523;52.504;13.498;2022-10-16T02:09:27;3.20;;;1.95;;
40807;SDS011;26523;52.504;13.498;2022-10-16T02:11:53;4.32;;;2.00;;
40807;SDS011;26523;52.504;13.498;2022-10-16T02:14:22;5.07;;;1.70;;
40807;SDS011;26523;52.504;13.498;2022-10-16T02:16:49;2.38;;;1.48;;
40807;SDS011;26523;52.504;13.498;2022-10-16T02:19:15;3.22;;;1.35;;
40807;SDS011;26523;52.504;13.498;2022-10-16T02:24:29;2.78;;;1.50;;
40807;SDS011;26523;52.504;13.498;2022-10-16T02:27:05;3.10;;;1.63;;
40807;SDS011;26523;52.504;13.498;2022-10-16T02:29:40;2.97;;;1.58;;
40807;SDS011;26523;52.504;13.498;2022-10-16T02:32:13;3.65;;;1.60;;
40807;SDS011;26523;52.504;13.498;2022-10-16T02:34:42;2.58;;;1.30;;
40807;SDS011;26523;52.504;13.498;2022-10-16T02:37:09;3.40;;;1.80;;
40807;SDS011;26523;52.504;13.498;2022-10-16T02:39:35;3.78;;;1.90;;
40807;SDS011;26523;52.504;13.498;2022-10-16T02:42:02;2.60;;;1.50;;
40807;SDS011;26523;52.504;13.498;2022-10-16T02:44:28;2.78;;;1.42;;
40807;SDS011;26523;52.504;13.498;2022-10-16T02:46:53;3.28;;;1.67;;
40807;SDS011;26523;52.504;13.498;2022-10-16T02:49:19;3.20;;;1.40;;
40807;SDS011;26523;52.504;13.498;2022-10-16T02:51:44;3.53;;;1.45;;
40807;SDS011;26523;52.504;13.498;2022-10-16T02:54:10;4.20;;;1.63;;
40807;SDS011;26523;52.504;13.498;2022-10-16T02:56:35;2.13;;;1.13;;
40807;SDS011;26523;52.504;13.498;2022-10-16T02:59:01;2.92;;;1.80;;
40807;SDS011;26523;52.504;13.498;2022-10-16T03:01:27;7.30;;;1.40;;
40807;SDS011;26523;52.504;13.498;2022-10-16T03:03:53;3.10;;;1.48;;
40807;SDS011;26523;52.504;13.498;2022-10-16T03:06:19;2.28;;;1.30;;
40807;SDS011;26523;52.504;13.498;2022-10-16T03:08:44;2.10;;;1.40;;
40807;SDS011;26523;52.504;13.498;2022-10-16T03:11:10;1.88;;;1.00;;
40807;SDS011;26523;52.504;13.498;2022-10-16T03:13:35;4.63;;;1.55;;
40807;SDS011;26523;52.504;13.498;2022-10-16T03:16:01;3.33;;;1.20;;
40807;SDS011;26523;52.504;13.498;2022-10-16T03:18:27;2.60;;;1.30;;
40807;SDS011;26523;52.504;13.498;2022-10-16T03:20:52;2.33;;;1.35;;
40807;SDS011;26523;52.504;13.498;2022-10-16T03:23:18;2.72;;;1.45;;
40807;SDS011;26523;52.504;13.498;2022-10-16T03:25:43;4.15;;;1.65;;
40807;SDS011;26523;52.504;13.498;2022-10-16T03:28:09;3.85;;;1.55;;
40807;SDS011;26523;52.504;13.498;2022-10-16T03:30:34;2.70;;;1.40;;
40807;SDS011;26523;52.504;13.498;2022-10-16T03:33:00;1.95;;;1.20;;
40807;SDS011;26523;52.504;13.498;2022-10-16T03:35:25;3.20;;;1.60;;
40807;SDS011;26523;52.504;13.498;2022-10-16T03:37:51;4.88;;;1.55;;
40807;SDS011;26523;52.504;13.498;2022-10-16T03:40:17;3.20;;;1.50;;
40807;SDS011;26523;52.504;13.498;2022-10-16T03:42:43;2.17;;;1.13;;
40807;SDS011;26523;52.504;13.498;2022-10-16T03:45:09;2.85;;;1.33;;
40807;SDS011;26523;52.504;13.498;2022-10-16T03:47:35;2.72;;;1.60;;
40807;SDS011;26523;52.504;13.498;2022-10-16T03:50:01;4.35;;;1.58;;
40807;SDS011;26523;52.504;13.498;2022-10-16T03:52:27;3.20;;;1.25;;
40807;SDS011;26523;52.504;13.498;2022-10-16T03:54:53;3.60;;;1.52;;
40807;SDS011;26523;52.504;13.498;2022-10-16T03:57:18;3.30;;;1.92;;
40807;SDS011;26523;52.504;13.498;2022-10-16T03:59:45;4.22;;;1.77;;
40807;SDS011;26523;52.504;13.498;2022-10-16T04:02:11;5.53;;;2.50;;
40807;SDS011;26523;52.504;13.498;2022-10-16T04:04:36;4.40;;;1.88;;
40807;SDS011;26523;52.504;13.498;2022-10-16T04:07:02;2.60;;;1.38;;
40807;SDS011;26523;52.504;13.498;2022-10-16T04:09:27;2.58;;;1.73;;
40807;SDS011;26523;52.504;13.498;2022-10-16T04:11:53;4.75;;;1.95;;
40807;SDS011;26523;52.504;13.498;2022-10-16T04:14:18;5.97;;;2.15;;
40807;SDS011;26523;52.504;13.498;2022-10-16T04:16:44;2.55;;;1.55;;
40807;SDS011;26523;52.504;13.498;2022-10-16T04:19:10;2.38;;;1.40;;
40807;SDS011;26523;52.504;13.498;2022-10-16T04:21:36;3.17;;;1.65;;
40807;SDS011;26523;52.504;13.498;2022-10-16T04:24:02;3.78;;;1.38;;
40807;SDS011;26523;52.504;13.498;2022-10-16T04:26:28;2.75;;;1.33;;
40807;SDS011;26523;52.504;13.498;2022-10-16T04:28:54;6.40;;;1.77;;
40807;SDS011;26523;52.504;13.498;2022-10-16T04:31:20;3.10;;;1.50;;
40807;SDS011;26523;52.504;13.498;2022-10-16T04:33:46;2.60;;;1.52;;
40807;SDS011;26523;52.504;13.498;2022-10-16T04:36:11;2.97;;;1.60;;
40807;SDS011;26523;52.504;13.498;2022-10-16T04:38:38;7.90;;;3.13;;
40807;SDS011;26523;52.504;13.498;2022-10-16T04:41:05;6.70;;;2.65;;
40807;SDS011;26523;52.504;13.498;2022-10-16T04:43:31;3.22;;;1.50;;
40807;SDS011;26523;52.504;13.498;2022-10-16T04:45:57;2.90;;;1.55;;
40807;SDS011;26523;52.504;13.498;2022-10-16T04:48:23;2.45;;;1.55;;
40807;SDS011;26523;52.504;13.498;2022-10-16T04:50:48;3.65;;;1.65;;
40807;SDS011;26523;52.504;13.498;2022-10-16T04:53:14;3.47;;;1.40;;
40807;SDS011;26523;52.504;13.498;2022-10-16T04:55:40;2.47;;;1.50;;
40807;SDS011;26523;52.504;13.498;2022-10-16T04:58:07;2.67;;;1.63;;
40807;SDS011;26523;52.504;13.498;2022-10-16T05:00:33;3.97;;;1.90;;
40807;SDS011;26523;52.504;13.498;2022-10-16T05:02:58;2.70;;;1.55;;
40807;SDS011;26523;52.504;13.498;2022-10-16T05:05:25;2.45;;;1.40;;
40807;SDS011;26523;52.504;13.498;2022-10-16T05:07:52;3.08;;;1.50;;
40807;SDS011;26523;52.504;13.498;2022-10-16T05:10:17;3.63;;;2.13;;
40807;SDS011;26523;52.504;13.498;2022-10-16T05:12:43;3.85;;;1.90;;
40807;SDS011;26523;52.504;13.498;2022-10-16T05:15:09;3.97;;;1.83;;
40807;SDS011;26523;52.504;13.498;2022-10-16T05:17:35;3.35;;;1.63;;
40807;SDS011;26523;52.504;13.498;2022-10-16T05:20:00;2.65;;;1.40;;
40807;SDS011;26523;52.504;13.498;2022-10-16T05:22:26;2.92;;;1.58;;
40807;SDS011;26523;52.504;13.498;2022-10-16T05:24:52;3.25;;;1.77;;
40807;SDS011;26523;52.504;13.498;2022-10-16T05:27:17;3.55;;;1.40;;
40807;SDS011;26523;52.504;13.498;2022-10-16T05:29:46;2.97;;;1.60;;
40807;SDS011;26523;52.504;13.498;2022-10-16T05:32:13;2.35;;;1.23;;
40807;SDS011;26523;52.504;13.498;2022-10-16T05:34:40;2.45;;;1.30;;
40807;SDS011;26523;52.504;13.498;2022-10-16T05:37:05;3.30;;;1.92;;
40807;SDS011;26523;52.504;13.498;2022-10-16T05:39:31;4.80;;;2.33;;
40807;SDS011;26523;52.504;13.498;2022-10-16T05:41:56;4.38;;;1.90;;
40807;SDS011;26523;52.504;13.498;2022-10-16T05:44:22;3.83;;;1.80;;
40807;SDS011;26523;52.504;13.498;2022-10-16T05:46:47;3.40;;;1.80;;
40807;SDS011;26523;52.504;13.498;2022-10-16T05:49:13;4.38;;;1.50;;
40807;SDS011;26523;52.504;13.498;2022-10-16T05:51:39;13.65;;;4.00;;
40807;SDS011;26523;52.504;13.498;2022-10-16T05:54:04;4.13;;;2.10;;
40807;SDS011;26523;52.504;13.498;2022-10-16T05:56:30;7.07;;;3.05;;
40807;SDS011;26523;52.504;13.498;2022-10-16T05:58:55;5.97;;;2.72;;
40807;SDS011;26523;52.504;13.498;2022-10-16T06:01:21;5.25;;;2.00;;
40807;SDS011;26523;52.504;13.498;2022-10-16T06:03:49;2.38;;;1.30;;
40807;SDS011;26523;52.504;13.498;2022-10-16T06:06:16;2.90;;;1.73;;
40807;SDS011;26523;52.504;13.498;2022-10-16T06:08:44;3.50;;;1.70;;
40807;SDS011;26523;52.504;13.498;2022-10-16T06:11:14;3.17;;;1.65;;
40807;SDS011;26523;52.504;13.498;2022-10-16T06:13:45;3.70;;;1.55;;
40807;SDS011;26523;52.504;13.498;2022-10-16T06:16:15;3.72;;;1.67;;
40807;SDS011;26523;52.504;13.498;2022-10-16T06:18:40;3.72;;;1.75;;
40807;SDS011;26523;52.504;13.498;2022-10-16T06:21:08;3.15;;;1.55;;
40807;SDS011;26523;52.504;13.498;2022-10-16T06:23:36;3.00;;;1.45;;
40807;SDS011;26523;52.504;13.498;2022-10-16T06:26:09;3.58;;;1.50;;
40807;SDS011;26523;52.504;13.498;2022-10-16T06:31:03;3.10;;;1.42;;
40807;SDS011;26523;52.504;13.498;2022-10-16T06:33:30;3.60;;;1.80;;
40807;SDS011;26523;52.504;13.498;2022-10-16T06:36:02;3.20;;;1.92;;
40807;SDS011;26523;52.504;13.498;2022-10-16T06:38:29;11.13;;;2.30;;
40807;SDS011;26523;52.504;13.498;2022-10-16T06:40:55;4.10;;;1.85;;
40807;SDS011;26523;52.504;13.498;2022-10-16T06:43:21;7.20;;;2.50;;
40807;SDS011;26523;52.504;13.498;2022-10-16T06:45:53;5.70;;;2.20;;
40807;SDS011;26523;52.504;13.498;2022-10-16T06:48:19;7.43;;;2.00;;
40807;SDS011;26523;52.504;13.498;2022-10-16T06:51:08;3.20;;;1.75;;
40807;SDS011;26523;52.504;13.498;2022-10-16T06:53:33;7.55;;;1.90;;
40807;SDS011;26523;52.504;13.498;2022-10-16T06:56:15;4.13;;;1.58;;
40807;SDS011;26523;52.504;13.498;2022-10-16T06:58:43;2.38;;;1.40;;
40807;SDS011;26523;52.504;13.498;2022-10-16T07:01:09;4.63;;;1.77;;
40807;SDS011;26523;52.504;13.498;2022-10-16T07:03:36;2.47;;;1.73;;
40807;SDS011;26523;52.504;13.498;2022-10-16T07:06:03;6.18;;;1.83;;
40807;SDS011;26523;52.504;13.498;2022-10-16T07:08:31;3.88;;;1.88;;
40807;SDS011;26523;52.504;13.498;2022-10-16T07:11:01;3.08;;;1.48;;
40807;SDS011;26523;52.504;13.498;2022-10-16T07:13:29;3.50;;;1.98;;
40807;SDS011;26523;52.504;13.498;2022-10-16T07:15:57;2.75;;;1.88;;
40807;SDS011;26523;52.504;13.498;2022-10-16T07:18:23;3.83;;;1.60;;
40807;SDS011;26523;52.504;13.498;2022-10-16T07:20:51;4.97;;;2.08;;
40807;SDS011;26523;52.504;13.498;2022-10-16T07:23:17;3.10;;;1.70;;
40807;SDS011;26523;52.504;13.498;2022-10-16T07:25:43;2.20;;;1.20;;
40807;SDS011;26523;52.504;13.498;2022-10-16T07:28:08;4.20;;;1.50;;
40807;SDS011;26523;52.504;13.498;2022-10-16T07:30:35;2.08;;;0.93;;
40807;SDS011;26523;52.504;13.498;2022-10-16T07:33:02;1.60;;;1.00;;
40807;SDS011;26523;52.504;13.498;2022-10-16T07:35:28;3.28;;;0.98;;
40807;SDS011;26523;52.504;13.498;2022-10-16T07:37:54;2.65;;;1.05;;
40807;SDS011;26523;52.504;13.498;2022-10-16T07:40:19;4.93;;;1.38;;
40807;SDS011;26523;52.504;13.498;2022-10-16T07:42:45;2.90;;;1.35;;
40807;SDS011;26523;52.504;13.498;2022-10-16T07:45:10;1.77;;;0.80;;
40807;SDS011;26523;52.504;13.498;2022-10-16T07:47:36;4.95;;;2.05;;
40807;SDS011;26523;52.504;13.498;2022-10-16T07:50:01;2.00;;;1.23;;
40807;SDS011;26523;52.504;13.498;2022-10-16T07:52:27;2.78;;;1.33;;
40807;SDS011;26523;52.504;13.498;2022-10-16T07:54:53;2.88;;;1.48;;
40807;SDS011;26523;52.504;13.498;2022-10-16T07:57:18;2.13;;;0.93;;
40807;SDS011;26523;52.504;13.498;2022-10-16T07:59:44;4.70;;;1.00;;
40807;SDS011;26523;52.504;13.498;2022-10-16T08:02:11;1.23;;;0.90;;
40807;SDS011;26523;52.504;13.498;2022-10-16T08:04:36;1.73;;;1.10;;
40807;SDS011;26523;52.504;13.498;2022-10-16T08:07:02;2.35;;;0.73;;
40807;SDS011;26523;52.504;13.498;2022-10-16T08:09:28;1.65;;;0.90;;
40807;SDS011;26523;52.504;13.498;2022-10-16T08:11:53;5.00;;;0.88;;
40807;SDS011;26523;52.504;13.498;2022-10-16T08:14:19;3.05;;;1.40;;
40807;SDS011;26523;52.504;13.498;2022-10-16T08:16:44;1.98;;;1.13;;
40807;SDS011;26523;52.504;13.498;2022-10-16T08:19:10;2.80;;;1.38;;
40807;SDS011;26523;52.504;13.498;2022-10-16T08:21:35;2.25;;;1.30;;
40807;SDS011;26523;52.504;13.498;2022-10-16T08:24:01;1.45;;;1.00;;
40807;SDS011;26523;52.504;13.498;2022-10-16T08:26:27;4.35;;;1.00;;
40807;SDS011;26523;52.504;13.498;2022-10-16T08:28:53;4.10;;;1.05;;
40807;SDS011;26523;52.504;13.498;2022-10-16T08:31:19;1.92;;;0.98;;
40807;SDS011;26523;52.504;13.498;2022-10-16T08:33:45;2.25;;;0.95;;
40807;SDS011;26523;52.504;13.498;2022-10-16T08:36:12;2.60;;;0.82;;
40807;SDS011;26523;52.504;13.498;2022-10-16T08:38:38;2.30;;;1.02;;
40807;SDS011;26523;52.504;13.498;2022-10-16T08:46:41;1.90;;;1.02;;
40807;SDS011;26523;52.504;13.498;2022-10-16T08:49:18;1.17;;;0.88;;
40807;SDS011;26523;52.504;13.498;2022-10-16T08:51:44;1.90;;;0.80;;
40807;SDS011;26523;52.504;13.498;2022-10-16T08:56:46;1.27;;;0.75;;
40807;SDS011;26523;52.504;13.498;2022-10-16T08:59:11;5.40;;;1.20;;
40807;SDS011;26523;52.504;13.498;2022-10-16T09:01:41;1.88;;;1.00;;
40807;SDS011;26523;52.504;13.498;2022-10-16T09:07:11;1.70;;;0.85;;
40807;SDS011;26523;52.504;13.498;2022-10-16T09:18:32;3.40;;;1.65;;
40807;SDS011;26523;52.504;13.498;2022-10-16T09:21:14;4.88;;;1.40;;
40807;SDS011;26523;52.504;13.498;2022-10-16T09:24:09;3.42;;;1.60;;
40807;SDS011;26523;52.504;13.498;2022-10-16T09:26:35;2.85;;;1.38;;
40807;SDS011;26523;52.504;13.498;2022-10-16T09:29:00;2.15;;;1.20;;
40807;SDS011;26523;52.504;13.498;2022-10-16T09:31:27;3.33;;;1.63;;
40807;SDS011;26523;52.504;13.498;2022-10-16T09:33:55;1.50;;;1.20;;
40807;SDS011;26523;52.504;13.498;2022-10-16T09:36:31;1.75;;;1.02;;
40807;SDS011;26523;52.504;13.498;2022-10-16T09:39:08;2.92;;;1.27;;
40807;SDS011;26523;52.504;13.498;2022-10-16T09:41:37;2.10;;;1.10;;
40807;SDS011;26523;52.504;13.498;2022-10-16T09:44:17;4.88;;;1.60;;
40807;SDS011;26523;52.504;13.498;2022-10-16T09:46:47;2.72;;;1.38;;
40807;SDS011;26523;52.504;13.498;2022-10-16T09:49:23;1.50;;;0.88;;
40807;SDS011;26523;52.504;13.498;2022-10-16T09:51:51;3.90;;;0.93;;
40807;SDS011;26523;52.504;13.498;2022-10-16T09:54:34;1.48;;;0.95;;
40807;SDS011;26523;52.504;13.498;2022-10-16T09:57:06;8.05;;;1.00;;
40807;SDS011;26523;52.504;13.498;2022-10-16T09:59:45;6.05;;;0.93;;
40807;SDS011;26523;52.504;13.498;2022-10-16T10:02:13;1.70;;;0.90;;
40807;SDS011;26523;52.504;13.498;2022-10-16T10:04:45;3.10;;;1.15;;
40807;SDS011;26523;52.504;13.498;2022-10-16T10:10:04;1.85;;;0.88;;
40807;SDS011;26523;52.504;13.498;2022-10-16T10:12:31;0.90;;;0.60;;
40807;SDS011;26523;52.504;13.498;2022-10-16T10:15:12;9.15;;;4.75;;
40807;SDS011;26523;52.504;13.498;2022-10-16T10:17:48;14.98;;;5.35;;
40807;SDS011;26523;52.504;13.498;2022-10-16T10:20:23;10.40;;;2.53;;
40807;SDS011;26523;52.504;13.498;2022-10-16T10:22:54;3.25;;;1.40;;
40807;SDS011;26523;52.504;13.498;2022-10-16T10:25:33;2.45;;;0.70;;
40807;SDS011;26523;52.504;13.498;2022-10-16T10:28:17;3.10;;;0.90;;
40807;SDS011;26523;52.504;13.498;2022-10-16T10:31:06;2.97;;;0.70;;
40807;SDS011;26523;52.504;13.498;2022-10-16T10:36:28;1.25;;;0.70;;
40807;SDS011;26523;52.504;13.498;2022-10-16T10:43:57;0.80;;;0.68;;
40807;SDS011;26523;52.504;13.498;2022-10-16T10:46:50;1.58;;;0.95;;
40807;SDS011;26523;52.504;13.498;2022-10-16T10:57:45;2.15;;;0.57;;
40807;SDS011;26523;52.504;13.498;2022-10-16T11:08:20;1.17;;;0.60;;
40807;SDS011;26523;52.504;13.498;2022-10-16T11:11:02;1.20;;;0.80;;
40807;SDS011;26523;52.504;13.498;2022-10-16T11:13:35;0.80;;;0.60;;
40807;SDS011;26523;52.504;13.498;2022-10-16T11:16:15;2.60;;;0.68;;
40807;SDS011;26523;52.504;13.498;2022-10-16T11:18:50;3.03;;;0.85;;
40807;SDS011;26523;52.504;13.498;2022-10-16T11:21:23;1.55;;;0.57;;
40807;SDS011;26523;52.504;13.498;2022-10-16T11:24:04;2.97;;;0.80;;
40807;SDS011;26523;52.504;13.498;2022-10-16T11:26:38;2.88;;;1.02;;
40807;SDS011;26523;52.504;13.498;2022-10-16T11:29:15;0.98;;;0.60;;
40807;SDS011;26523;52.504;13.498;2022-10-16T11:31:48;2.50;;;0.82;;
40807;SDS011;26523;52.504;13.498;2022-10-16T11:36:49;2.85;;;0.60;;
40807;SDS011;26523;52.504;13.498;2022-10-16T11:39:25;1.50;;;0.50;;
40807;SDS011;26523;52.504;13.498;2022-10-16T11:41:55;1.10;;;0.70;;
40807;SDS011;26523;52.504;13.498;2022-10-16T11:45:02;4.03;;;0.80;;
40807;SDS011;26523;52.504;13.498;2022-10-16T11:48:02;2.17;;;0.77;;
40807;SDS011;26523;52.504;13.498;2022-10-16T11:50:40;2.88;;;0.70;;
40807;SDS011;26523;52.504;13.498;2022-10-16T11:55:45;23.30;;;2.97;;
40807;SDS011;26523;52.504;13.498;2022-10-16T12:01:24;3.17;;;0.90;;
40807;SDS011;26523;52.504;13.498;2022-10-16T12:09:02;10.48;;;2.90;;
40807;SDS011;26523;52.504;13.498;2022-10-16T12:14:16;2.65;;;0.88;;
40807;SDS011;26523;52.504;13.498;2022-10-16T12:19:26;0.93;;;0.60;;
40807;SDS011;26523;52.504;13.498;2022-10-16T12:21:58;1.85;;;0.80;;
40807;SDS011;26523;52.504;13.498;2022-10-16T12:24:44;2.00;;;0.70;;
40807;SDS011;26523;52.504;13.498;2022-10-16T12:30:14;6.47;;;1.77;;
40807;SDS011;26523;52.504;13.498;2022-10-16T12:32:52;4.13;;;1.60;;
40807;SDS011;26523;52.504;13.498;2022-10-16T12:35:21;2.05;;;0.95;;
40807;SDS011;26523;52.504;13.498;2022-10-16T12:37:52;2.40;;;0.90;;
40807;SDS011;26523;52.504;13.498;2022-10-16T12:40:29;1.77;;;0.65;;
40807;SDS011;26523;52.504;13.498;2022-10-16T12:42:58;1.95;;;0.73;;
40807;SDS011;26523;52.504;13.498;2022-10-16T12:47:57;4.35;;;1.00;;
40807;SDS011;26523;52.504;13.498;2022-10-16T12:50:35;3.45;;;0.60;;
40807;SDS011;26523;52.504;13.498;2022-10-16T12:53:03;2.15;;;0.63;;
40807;SDS011;26523;52.504;13.498;2022-10-16T12:55:45;1.48;;;0.80;;
40807;SDS011;26523;52.504;13.498;2022-10-16T12:58:51;2.45;;;1.00;;
40807;SDS011;26523;52.504;13.498;2022-10-16T13:05:02;1.42;;;0.80;;
40807;SDS011;26523;52.504;13.498;2022-10-16T13:10:31;0.75;;;0.50;;
40807;SDS011;26523;52.504;13.498;2022-10-16T13:24:10;1.85;;;0.70;;
40807;SDS011;26523;52.504;13.498;2022-10-16T13:26:55;2.17;;;0.85;;
40807;SDS011;26523;52.504;13.498;2022-10-16T13:30:00;1.48;;;0.50;;
40807;SDS011;26523;52.504;13.498;2022-10-16T13:32:34;2.20;;;0.90;;
40807;SDS011;26523;52.504;13.498;2022-10-16T13:34:59;0.68;;;0.40;;
40807;SDS011;26523;52.504;13.498;2022-10-16T13:37:26;1.35;;;0.65;;
40807;SDS011;26523;52.504;13.498;2022-10-16T13:40:02;1.25;;;0.65;;
40807;SDS011;26523;52.504;13.498;2022-10-16T13:42:42;1.20;;;0.60;;
40807;SDS011;26523;52.504;13.498;2022-10-16T13:45:17;1.35;;;0.80;;
40807;SDS011;26523;52.504;13.498;2022-10-16T13:47:46;1.50;;;0.50;;
40807;SDS011;26523;52.504;13.498;2022-10-16T13:50:13;2.42;;;0.70;;
40807;SDS011;26523;52.504;13.498;2022-10-16T13:52:40;1.85;;;0.50;;
40807;SDS011;26523;52.504;13.498;2022-10-16T13:55:12;1.52;;;1.02;;
40807;SDS011;26523;52.504;13.498;2022-10-16T13:57:42;0.90;;;0.60;;
40807;SDS011;26523;52.504;13.498;2022-10-16T14:00:24;0.95;;;0.50;;
40807;SDS011;26523;52.504;13.498;2022-10-16T14:03:04;0.95;;;0.50;;
40807;SDS011;26523;52.504;13.498;2022-10-16T14:05:32;4.22;;;0.73;;
40807;SDS011;26523;52.504;13.498;2022-10-16T14:07:59;1.33;;;0.73;;
40807;SDS011;26523;52.504;13.498;2022-10-16T14:10:26;2.65;;;0.63;;
40807;SDS011;26523;52.504;13.498;2022-10-16T14:15:27;1.67;;;0.50;;
40807;SDS011;26523;52.504;13.498;2022-10-16T14:17:55;3.03;;;0.57;;
40807;SDS011;26523;52.504;13.498;2022-10-16T14:20:24;1.27;;;0.60;;
40807;SDS011;26523;52.504;13.498;2022-10-16T14:23:02;2.67;;;0.80;;
40807;SDS011;26523;52.504;13.498;2022-10-16T14:25:43;1.95;;;0.88;;
40807;SDS011;26523;52.504;13.498;2022-10-16T14:28:20;6.38;;;0.88;;
40807;SDS011;26523;52.504;13.498;2022-10-16T14:30:54;0.98;;;0.55;;
40807;SDS011;26523;52.504;13.498;2022-10-16T14:33:22;1.02;;;0.55;;
40807;SDS011;26523;52.504;13.498;2022-10-16T14:36:00;0.80;;;0.50;;
40807;SDS011;26523;52.504;13.498;2022-10-16T14:38:30;1.85;;;0.68;;
40807;SDS011;26523;52.504;13.498;2022-10-16T14:40:58;0.93;;;0.60;;
40807;SDS011;26523;52.504;13.498;2022-10-16T14:43:34;3.80;;;0.73;;
40807;SDS011;26523;52.504;13.498;2022-10-16T14:46:00;1.83;;;0.60;;
40807;SDS011;26523;52.504;13.498;2022-10-16T14:48:27;1.30;;;0.60;;
40807;SDS011;26523;52.504;13.498;2022-10-16T14:50:53;1.65;;;0.52;;
40807;SDS011;26523;52.504;13.498;2022-10-16T14:53:22;2.60;;;0.88;;
40807;SDS011;26523;52.504;13.498;2022-10-16T14:55:47;2.00;;;0.75;;
40807;SDS011;26523;52.504;13.498;2022-10-16T14:58:14;1.05;;;0.65;;
40807;SDS011;26523;52.504;13.498;2022-10-16T15:00:42;1.55;;;0.70;;
40807;SDS011;26523;52.504;13.498;2022-10-16T15:03:08;2.00;;;0.90;;
40807;SDS011;26523;52.504;13.498;2022-10-16T15:05:34;1.48;;;0.75;;
40807;SDS011;26523;52.504;13.498;2022-10-16T15:07:59;3.45;;;0.77;;
40807;SDS011;26523;52.504;13.498;2022-10-16T15:10:25;2.45;;;1.02;;
40807;SDS011;26523;52.504;13.498;2022-10-16T15:12:53;1.98;;;0.65;;
40807;SDS011;26523;52.504;13.498;2022-10-16T15:17:55;3.25;;;1.15;;
40807;SDS011;26523;52.504;13.498;2022-10-16T15:20:22;1.20;;;0.52;;
40807;SDS011;26523;52.504;13.498;2022-10-16T15:22:49;3.00;;;0.93;;
40807;SDS011;26523;52.504;13.498;2022-10-16T15:25:32;2.83;;;0.82;;
40807;SDS011;26523;52.504;13.498;2022-10-16T15:28:07;1.17;;;0.75;;
40807;SDS011;26523;52.504;13.498;2022-10-16T15:30:34;1.25;;;0.70;;
40807;SDS011;26523;52.504;13.498;2022-10-16T15:33:00;1.23;;;0.43;;
40807;SDS011;26523;52.504;13.498;2022-10-16T15:35:26;5.55;;;1.00;;
40807;SDS011;26523;52.504;13.498;2022-10-16T15:37:52;3.88;;;0.90;;
40807;SDS011;26523;52.504;13.498;2022-10-16T15:40:19;2.88;;;0.80;;
40807;SDS011;26523;52.504;13.498;2022-10-16T15:42:45;1.27;;;0.70;;
40807;SDS011;26523;52.504;13.498;2022-10-16T15:45:11;2.63;;;0.90;;
40807;SDS011;26523;52.504;13.498;2022-10-16T15:47:37;2.97;;;1.20;;
40807;SDS011;26523;52.504;13.498;2022-10-16T15:50:04;3.60;;;0.90;;
40807;SDS011;26523;52.504;13.498;2022-10-16T15:52:30;2.40;;;0.95;;
40807;SDS011;26523;52.504;13.498;2022-10-16T15:54:57;2.40;;;0.90;;
40807;SDS011;26523;52.504;13.498;2022-10-16T15:57:23;3.70;;;1.20;;
40807;SDS011;26523;52.504;13.498;2022-10-16T15:59:49;2.55;;;1.02;;
40807;SDS011;26523;52.504;13.498;2022-10-16T16:02:15;1.58;;;0.93;;
40807;SDS011;26523;52.504;13.498;2022-10-16T16:04:41;1.65;;;0.80;;
40807;SDS011;26523;52.504;13.498;2022-10-16T16:07:07;6.50;;;1.80;;
40807;SDS011;26523;52.504;13.498;2022-10-16T16:09:33;2.00;;;1.02;;
40807;SDS011;26523;52.504;13.498;2022-10-16T16:12:00;3.67;;;1.10;;
40807;SDS011;26523;52.504;13.498;2022-10-16T16:14:26;3.05;;;1.33;;
40807;SDS011;26523;52.504;13.498;2022-10-16T16:16:55;2.03;;;0.90;;
40807;SDS011;26523;52.504;13.498;2022-10-16T16:19:21;3.47;;;1.17;;
40807;SDS011;26523;52.504;13.498;2022-10-16T16:21:47;3.05;;;1.20;;
40807;SDS011;26523;52.504;13.498;2022-10-16T16:24:13;4.05;;;1.90;;
40807;SDS011;26523;52.504;13.498;2022-10-16T16:26:39;3.20;;;1.52;;
40807;SDS011;26523;52.504;13.498;2022-10-16T16:29:08;2.00;;;0.95;;
40807;SDS011;26523;52.504;13.498;2022-10-16T16:31:39;2.40;;;1.45;;
40807;SDS011;26523;52.504;13.498;2022-10-16T16:34:05;2.65;;;0.95;;
40807;SDS011;26523;52.504;13.498;2022-10-16T16:36:31;3.88;;;1.55;;
40807;SDS011;26523;52.504;13.498;2022-10-16T16:38:57;3.38;;;1.40;;
40807;SDS011;26523;52.504;13.498;2022-10-16T16:41:23;3.75;;;1.50;;